createdAt,value
2019-06-07T00:04:26.594Z,18.90
2019-06-07T00:09:29.310Z,14.53
2019-06-07T00:14:32.072Z,11.10
2019-06-07T00:19:35.002Z,12.83
2019-06-07T00:24:37.745Z,15.23
2019-06-07T00:29:40.464Z,13.27
2019-06-07T00:34:43.206Z,24.90
2019-06-07T00:39:45.922Z,11.47
2019-06-07T00:44:48.694Z,10.30
2019-06-07T00:49:51.428Z,13.80
2019-06-07T00:54:54.173Z,15.37
2019-06-07T00:59:56.878Z,10.83
2019-06-07T01:04:59.606Z,11.03
2019-06-07T01:10:02.449Z,13.00
2019-06-07T01:15:07.596Z,12.43
2019-06-07T01:20:11.320Z,15.53
2019-06-07T01:25:15.637Z,8.33
2019-06-07T01:30:22.770Z,18.20
2019-06-07T01:35:25.477Z,13.97
2019-06-07T01:40:32.246Z,8.97
2019-06-07T01:45:33.236Z,13.50
2019-06-07T01:50:35.986Z,15.73
2019-06-07T01:55:38.712Z,16.37
2019-06-07T02:00:41.439Z,16.80
2019-06-07T02:05:44.156Z,16.37
2019-06-07T02:10:46.865Z,19.60
2019-06-07T02:15:49.579Z,17.50
2019-06-07T02:20:52.293Z,15.10
2019-06-07T02:25:55.098Z,16.93
2019-06-07T02:31:00.573Z,20.67
2019-06-07T02:36:02.596Z,22.97
2019-06-07T02:41:05.403Z,22.60
2019-06-07T02:46:30.556Z,23.83
2019-06-07T02:51:32.745Z,22.97
2019-06-07T02:56:44.466Z,31.03
2019-06-07T03:01:41.339Z,20.93
2019-06-07T03:06:44.017Z,23.90
2019-06-07T03:11:51.126Z,25.13
2019-06-07T03:17:03.356Z,29.27
2019-06-07T03:22:06.152Z,20.40
2019-06-07T03:27:34.973Z,24.33
2019-06-07T03:32:13.547Z,20.80
2019-06-07T03:37:16.295Z,28.97
2019-06-07T03:42:19.023Z,21.90
2019-06-07T03:47:24.005Z,25.07
2019-06-07T03:52:27.456Z,24.47
2019-06-07T03:57:46.334Z,27.80
2019-06-07T04:02:38.619Z,22.00
2019-06-07T04:07:44.187Z,25.73
2019-06-07T04:12:44.703Z,22.63
2019-06-07T04:18:01.460Z,22.23
2019-06-07T04:22:53.746Z,23.87
2019-06-07T04:27:56.616Z,32.93
2019-06-07T04:32:59.507Z,22.93
2019-06-07T04:38:02.321Z,43.60
2019-06-07T04:43:06.139Z,18.60
2019-06-07T04:48:09.096Z,23.33
2019-06-07T04:53:11.849Z,26.00
2019-06-07T04:58:14.576Z,23.33
2019-06-07T05:03:17.330Z,19.23
2019-06-07T05:08:28.231Z,22.70
2019-06-07T05:13:24.738Z,18.17
2019-06-07T05:18:36.348Z,22.00
2019-06-07T05:24:05.942Z,14.10
2019-06-07T05:28:49.104Z,12.80
2019-06-07T05:34:03.033Z,17.70
2019-06-07T05:39:07.857Z,16.83
2019-06-07T05:44:13.085Z,9.90
2019-06-07T05:49:16.032Z,11.03
2019-06-07T05:54:18.814Z,11.63
2019-06-07T05:59:21.616Z,8.53
2019-06-07T06:04:24.332Z,13.60
2019-06-07T06:09:27.501Z,10.70
2019-06-07T06:14:30.426Z,7.20
2019-06-07T06:19:33.143Z,6.60
2019-06-07T06:24:37.178Z,7.90
2019-06-07T06:29:41.822Z,8.13
2019-06-07T06:34:49.353Z,8.20
2019-06-07T06:39:50.921Z,8.00
2019-06-07T06:44:54.300Z,6.43
2019-06-07T06:49:58.511Z,8.57
2019-06-07T06:55:01.632Z,6.17
2019-06-07T07:00:08.083Z,11.97
2019-06-07T07:05:11.674Z,7.00
2019-06-07T07:10:24.847Z,5.13
2019-06-07T07:15:27.806Z,5.50
2019-06-07T07:20:30.514Z,5.67
2019-06-07T07:25:33.240Z,6.90
2019-06-07T07:30:44.574Z,4.43
2019-06-07T07:36:14.019Z,5.40
2019-06-07T07:41:15.095Z,4.97
2019-06-07T07:46:03.052Z,5.33
2019-06-07T07:51:03.384Z,6.83
2019-06-07T07:56:06.777Z,7.33
2019-06-07T08:01:11.254Z,5.27
2019-06-07T08:06:14.243Z,4.53
2019-06-07T08:11:16.962Z,7.83
2019-06-07T08:16:19.758Z,6.93
2019-06-07T08:21:26.560Z,8.57
2019-06-07T08:26:29.058Z,6.77
2019-06-07T08:31:31.770Z,9.53
2019-06-07T08:36:42.003Z,5.57
2019-06-07T08:41:54.159Z,5.13
2019-06-07T08:46:45.038Z,8.73
2019-06-07T08:51:47.769Z,11.10
2019-06-07T08:56:53.628Z,4.90
2019-06-07T09:01:59.724Z,7.70
2019-06-07T09:07:09.103Z,6.27
2019-06-07T09:12:10.704Z,4.37
2019-06-07T09:17:12.320Z,5.20
2019-06-07T09:22:14.477Z,4.73
2019-06-07T09:27:17.308Z,11.23
2019-06-07T09:32:20.031Z,4.17
2019-06-07T09:38:03.517Z,7.37
2019-06-07T09:42:27.520Z,4.77
2019-06-07T09:47:32.793Z,6.63
2019-06-07T09:52:57.340Z,6.73
2019-06-07T09:57:42.059Z,3.50
2019-06-07T10:02:44.917Z,5.83
2019-06-07T10:08:02.327Z,10.00
2019-06-07T10:12:53.696Z,5.17
2019-06-07T10:17:56.461Z,8.40
2019-06-07T10:22:59.543Z,4.73
2019-06-07T10:28:03.720Z,3.30
2019-06-07T10:33:07.023Z,3.33
2019-06-07T10:38:10.725Z,3.40
2019-06-07T10:43:14.522Z,2.73
2019-06-07T10:48:17.618Z,3.33
2019-06-07T10:53:20.349Z,3.23
2019-06-07T10:58:23.114Z,3.50
2019-06-07T11:03:25.852Z,3.37
2019-06-07T11:08:28.582Z,2.80
2019-06-07T11:13:31.484Z,2.73
2019-06-07T11:18:34.202Z,3.30
2019-06-07T11:23:37.023Z,6.20
2019-06-07T11:28:39.841Z,3.27
2019-06-07T11:33:42.573Z,3.47
2019-06-07T11:38:45.391Z,3.03
2019-06-07T11:43:48.130Z,10.33
2019-06-07T11:48:50.913Z,4.90
2019-06-07T11:53:53.700Z,5.60
2019-06-07T11:58:56.494Z,4.97
2019-06-07T12:03:59.315Z,3.70
2019-06-07T12:09:02.045Z,2.97
2019-06-07T12:14:05.336Z,3.33
2019-06-07T12:19:09.544Z,5.50
2019-06-07T12:24:12.521Z,3.30
2019-06-07T12:29:15.263Z,3.00
2019-06-07T12:34:17.984Z,4.10
2019-06-07T12:39:20.732Z,3.00
2019-06-07T12:44:23.461Z,5.27
2019-06-07T12:49:26.173Z,2.93
2019-06-07T12:54:28.915Z,2.67
2019-06-07T12:59:31.644Z,3.90
2019-06-07T13:04:34.363Z,2.40
2019-06-07T13:09:37.084Z,3.13
2019-06-07T13:14:39.809Z,4.23
2019-06-07T13:19:42.552Z,3.73
2019-06-07T13:24:45.274Z,4.47
2019-06-07T13:29:48.006Z,3.83
2019-06-07T13:34:50.759Z,3.90
2019-06-07T13:39:53.482Z,3.50
2019-06-07T13:44:56.278Z,3.47
2019-06-07T13:49:59.100Z,3.53
2019-06-07T13:55:02.475Z,6.80
2019-06-07T14:00:10.850Z,4.00
2019-06-07T14:05:13.998Z,3.50
2019-06-07T14:10:16.744Z,3.60
2019-06-07T14:15:20.525Z,4.83
2019-06-07T14:20:26.756Z,3.20
2019-06-07T14:25:29.371Z,3.50
2019-06-07T14:30:32.749Z,3.70
2019-06-07T14:35:35.571Z,4.40
2019-06-07T14:40:40.133Z,7.83
2019-06-07T14:45:42.902Z,5.50
2019-06-07T14:50:45.649Z,3.83
2019-06-07T14:55:48.374Z,3.90
2019-06-07T15:00:51.084Z,4.40
2019-06-07T15:05:53.882Z,6.00
2019-06-07T15:10:56.654Z,3.60
2019-06-07T15:15:59.367Z,2.97
2019-06-07T15:21:02.424Z,3.27
2019-06-07T15:26:05.217Z,4.83
2019-06-07T15:31:07.945Z,3.70
2019-06-07T15:36:10.667Z,4.80
2019-06-07T15:41:13.374Z,3.57
2019-06-07T15:46:16.157Z,6.80
2019-06-07T15:51:18.940Z,4.07
2019-06-07T15:56:21.656Z,4.03
2019-06-07T16:01:24.369Z,5.03
2019-06-07T16:06:27.102Z,4.13
2019-06-07T16:11:30.356Z,4.10
2019-06-07T16:16:33.096Z,4.67
2019-06-07T16:21:35.827Z,7.40
2019-06-07T16:26:38.548Z,4.50
2019-06-07T16:31:41.261Z,4.83
2019-06-07T16:36:44.508Z,4.23
2019-06-07T16:41:48.954Z,4.13
2019-06-07T16:46:51.770Z,4.90
2019-06-07T16:52:02.573Z,4.77
2019-06-07T16:57:05.305Z,8.73
2019-06-07T17:02:08.014Z,5.67
2019-06-07T17:07:10.727Z,5.63
2019-06-07T17:12:13.441Z,7.43
2019-06-07T17:17:17.081Z,6.50
2019-06-07T17:22:19.878Z,6.50
2019-06-07T17:27:22.622Z,5.47
2019-06-07T17:32:25.362Z,4.87
2019-06-07T17:37:28.160Z,6.00
2019-06-07T17:42:30.900Z,5.33
2019-06-07T17:47:33.616Z,6.30
2019-06-07T17:52:36.329Z,7.30
2019-06-07T17:57:39.061Z,5.63
2019-06-07T18:02:42.632Z,7.03
2019-06-07T18:07:50.055Z,5.20
2019-06-07T18:12:53.042Z,6.00
2019-06-07T18:17:56.958Z,8.83
2019-06-07T18:23:03.940Z,7.40
2019-06-07T18:28:07.048Z,5.80
2019-06-07T18:33:09.791Z,6.70
2019-06-07T18:38:12.503Z,5.63
2019-06-07T18:43:15.222Z,7.40
2019-06-07T18:48:17.926Z,5.50
2019-06-07T18:53:20.659Z,6.10
2019-06-07T18:58:23.398Z,6.50
2019-06-07T19:03:26.117Z,5.90
2019-06-07T19:08:28.927Z,7.40
2019-06-07T19:13:31.985Z,23.07
2019-06-07T19:18:34.710Z,11.43
2019-06-07T19:23:37.445Z,4.93
2019-06-07T19:28:40.194Z,5.70
2019-06-07T19:33:49.158Z,5.20
2019-06-07T19:38:47.567Z,8.87
2019-06-07T19:43:50.334Z,4.10
2019-06-07T19:48:54.488Z,8.57
2019-06-07T19:53:57.709Z,7.27
2019-06-07T19:59:01.704Z,9.63
2019-06-07T20:04:04.668Z,7.13
2019-06-07T20:09:07.595Z,6.97
2019-06-07T20:14:10.535Z,9.57
2019-06-07T20:19:13.303Z,8.83
2019-06-07T20:24:26.471Z,11.33
2019-06-07T20:29:25.720Z,7.90
2019-06-07T20:34:25.655Z,6.40
2019-06-07T20:39:28.633Z,5.73
2019-06-07T20:44:31.440Z,10.40
2019-06-07T20:49:34.531Z,4.90
2019-06-07T20:54:37.388Z,4.17
2019-06-07T20:59:40.372Z,2.50
2019-06-07T21:11:07.795Z,5.27
2019-06-07T21:16:10.734Z,4.50
2019-06-07T21:21:13.587Z,2.30
2019-06-07T21:26:16.463Z,6.70
2019-06-07T21:31:19.336Z,5.73
2019-06-07T21:36:22.111Z,1.80
2019-06-07T21:41:24.896Z,2.93
2019-06-07T21:46:27.763Z,2.77
2019-06-07T21:51:30.676Z,2.27
2019-06-07T21:56:33.587Z,1.93
2019-06-07T22:01:36.873Z,3.60
2019-06-07T22:06:39.902Z,2.70
2019-06-07T22:11:42.926Z,5.17
2019-06-07T22:16:46.377Z,3.87
2019-06-07T22:22:02.119Z,3.47
2019-06-07T22:26:54.509Z,1.60
2019-06-07T22:32:00.080Z,2.10
2019-06-07T22:37:23.634Z,3.43
2019-06-07T22:42:28.938Z,4.77
2019-06-07T22:47:38.032Z,1.40
2019-06-07T22:52:42.220Z,3.60
2019-06-07T22:57:58.296Z,2.63
2019-06-07T23:03:01.030Z,1.00
2019-06-07T23:08:05.346Z,4.20
2019-06-07T23:13:09.859Z,3.33
2019-06-07T23:18:13.460Z,3.43
2019-06-07T23:23:17.305Z,2.30
2019-06-07T23:34:46.094Z,3.80
2019-06-07T23:39:49.513Z,0.87
2019-06-07T23:44:52.369Z,1.10
2019-06-07T23:49:58.081Z,2.20
2019-06-07T23:55:00.896Z,1.63
